CheckWX is a tool to help pilots better visualize weather data.  It is not intended as a substitute for an official pre-flight weather briefing.

21:53:46 UTC

LDOS TAF
Osijek Airport
Osijek, Croatia
TAF LDOS 132325Z 1400/1500 08007KT CAVOK TX27/1413Z TN09/1403Z

Jul-14@
00:00 UTC

Jul-14 @ 00:00 UTC

Jul-15@
00:00 UTC

Jul-15 @ 00:00 UTC

TAF LDOS 132325Z 1400/1500 08007KT CAVOK TX27/1413Z TN09/1403Z
Wind
  • 080° at 7 KTS
Cloud Levels
  • No significant clouds